Time;durP1;ratioP1;P1;durP2;ratioP2;P2;SDS_P1;SDS_P2;PMS_P1;PMS_P2;Temp;Humidity;BMP_temperature;BMP_pressure;BME280_temperature;BME280_humidity;BME280_pressure;Samples;Min_cycle;Max_cycle;Signal;HPM_P1;HPM_P2
2022/06/09 00:00:37;;;;;;;46.15;14.82;;;14.30;99.90;;;;;;4985701;28;20046;-87
2022/06/09 00:03:12;;;;;;;42.10;13.93;;;14.20;99.90;;;;;;4995444;28;20127;-87
2022/06/09 00:05:38;;;;;;;49.53;15.10;;;14.20;99.90;;;;;;5019842;28;20479;-87
2022/06/09 00:08:05;;;;;;;62.15;16.95;;;14.20;99.90;;;;;;5009882;28;20076;-87
2022/06/09 00:10:39;;;;;;;41.25;13.70;;;14.20;99.90;;;;;;4999176;28;20533;-87
2022/06/09 00:13:05;;;;;;;35.10;12.32;;;14.20;99.90;;;;;;5025206;28;20061;-86
2022/06/09 00:15:31;;;;;;;39.20;13.60;;;14.10;99.90;;;;;;5036042;28;20475;-86
2022/06/09 00:17:56;;;;;;;50.72;14.23;;;14.10;99.90;;;;;;5046677;28;20114;-87
2022/06/09 00:20:22;;;;;;;47.60;15.70;;;14.10;99.90;;;;;;5021758;28;20034;-87
2022/06/09 00:22:48;;;;;;;45.58;14.23;;;14.00;99.90;;;;;;5021984;28;20048;-86
2022/06/09 00:25:14;;;;;;;44.22;14.88;;;14.00;99.90;;;;;;5031367;28;20152;-88
2022/06/09 00:27:40;;;;;;;53.60;15.93;;;14.00;99.90;;;;;;5033880;28;20041;-87
2022/06/09 00:30:10;;;;;;;48.20;14.70;;;13.90;99.90;;;;;;5010938;28;20040;-87
2022/06/09 00:32:36;;;;;;;56.58;16.02;;;14.00;99.90;;;;;;5015485;28;20049;-88
2022/06/09 00:35:02;;;;;;;58.08;16.90;;;14.00;99.90;;;;;;5008234;28;20049;-87
2022/06/09 00:37:27;;;;;;;48.88;14.85;;;14.00;99.90;;;;;;5030007;28;20099;-87
2022/06/09 00:39:54;;;;;;;46.03;14.25;;;14.10;99.90;;;;;;5023235;28;20049;-87
2022/06/09 00:42:20;;;;;;;50.42;15.00;;;14.10;99.90;;;;;;5028149;28;20159;-86
2022/06/09 00:44:45;;;;;;;55.92;16.85;;;14.10;99.90;;;;;;5013928;28;20062;-87
2022/06/09 00:47:20;;;;;;;53.05;16.90;;;14.10;99.90;;;;;;5021761;28;20088;-90
2022/06/09 00:50:00;;;;;;;62.92;17.75;;;14.10;99.90;;;;;;5023800;28;20427;-88
2022/06/09 00:52:29;;;;;;;47.63;17.15;;;14.10;99.90;;;;;;5042731;28;20049;-87
2022/06/09 00:55:02;;;;;;;40.70;15.85;;;14.00;99.90;;;;;;5044080;28;20089;-86
2022/06/09 00:57:36;;;;;;;57.08;18.83;;;14.10;99.90;;;;;;5048831;28;20128;-87
2022/06/09 01:00:12;;;;;;;83.47;22.63;;;14.10;99.90;;;;;;5038563;28;20040;-86
2022/06/09 01:02:40;;;;;;;56.15;18.30;;;14.10;99.90;;;;;;5022647;28;20045;-86
2022/06/09 01:05:07;;;;;;;58.83;19.50;;;14.10;99.90;;;;;;4999594;28;20050;-87
2022/06/09 01:07:37;;;;;;;58.38;18.38;;;14.10;99.90;;;;;;5044676;28;20367;-87
2022/06/09 01:10:04;;;;;;;74.53;20.77;;;14.10;99.90;;;;;;5042080;28;20348;-86
2022/06/09 01:12:36;;;;;;;67.85;20.67;;;14.10;99.90;;;;;;5042209;28;20061;-88
2022/06/09 01:15:08;;;;;;;67.25;20.90;;;14.00;99.90;;;;;;5039948;28;20717;-88
2022/06/09 01:17:55;;;;;;;67.40;19.95;;;14.00;99.90;;;;;;5042453;28;20052;-88
2022/06/09 01:20:23;;;;;;;60.65;19.42;;;14.10;99.90;;;;;;5041100;28;20486;-90
2022/06/09 01:22:55;;;;;;;65.30;20.20;;;14.00;99.90;;;;;;5030137;28;20072;-86
2022/06/09 01:25:36;;;;;;;66.35;19.48;;;14.00;99.90;;;;;;5038888;28;20037;-88
2022/06/09 01:28:39;;;;;;;59.55;19.55;;;14.00;99.90;;;;;;5042553;28;20055;-87
2022/06/09 01:31:15;;;;;;;55.53;17.95;;;14.00;99.90;;;;;;5053685;28;20490;-86
2022/06/09 01:33:52;;;;;;;60.55;20.25;;;14.00;99.90;;;;;;5039092;28;20120;-86
2022/06/09 01:36:40;;;;;;;56.25;16.95;;;14.00;99.90;;;;;;5025222;28;20079;-86
2022/06/09 01:39:06;;;;;;;67.72;20.52;;;14.00;99.90;;;;;;5047929;28;20107;-86
2022/06/09 01:41:33;;;;;;;68.47;19.10;;;13.90;99.90;;;;;;5025396;28;20042;-87
2022/06/09 01:43:59;;;;;;;57.25;17.73;;;13.90;99.90;;;;;;5028777;28;20085;-87
2022/06/09 01:46:32;;;;;;;62.03;20.45;;;13.90;99.90;;;;;;5017489;28;20034;-88
2022/06/09 01:49:13;;;;;;;64.35;20.90;;;13.90;99.90;;;;;;5044792;28;20441;-87
2022/06/09 01:51:42;;;;;;;66.72;19.73;;;13.90;99.90;;;;;;5024700;28;20121;-87
2022/06/09 01:54:25;;;;;;;72.25;20.60;;;13.90;99.90;;;;;;5051049;28;20132;-87
2022/06/09 01:56:56;;;;;;;55.15;18.63;;;13.90;99.90;;;;;;5048044;28;20131;-87
2022/06/09 01:59:48;;;;;;;79.63;23.33;;;13.80;99.90;;;;;;5027820;28;20087;-87
2022/06/09 02:02:26;;;;;;;66.07;20.40;;;13.80;99.90;;;;;;5019478;28;20498;-87
2022/06/09 02:05:01;;;;;;;60.45;19.80;;;13.80;99.90;;;;;;5051731;28;20494;-86
2022/06/09 02:07:31;;;;;;;66.57;21.25;;;13.80;99.90;;;;;;5041723;28;20041;-87
2022/06/09 02:09:57;;;;;;;60.03;18.25;;;13.80;99.90;;;;;;5047631;28;20057;-86
2022/06/09 02:12:25;;;;;;;67.53;22.58;;;13.70;99.90;;;;;;5024740;28;20059;-86
2022/06/09 02:14:55;;;;;;;64.30;20.67;;;13.60;99.90;;;;;;5028572;28;20156;-87
2022/06/09 02:17:21;;;;;;;67.32;20.23;;;13.70;99.90;;;;;;5028050;28;20034;-87
2022/06/09 02:19:49;;;;;;;76.38;19.77;;;13.70;99.90;;;;;;5002684;28;20048;-86
2022/06/09 02:22:15;;;;;;;75.55;23.02;;;13.70;99.90;;;;;;5049427;28;20045;-87
2022/06/09 02:24:41;;;;;;;54.15;18.45;;;13.60;99.90;;;;;;5015032;28;20107;-87
2022/06/09 02:27:07;;;;;;;53.28;19.17;;;13.60;99.90;;;;;;5049091;28;20056;-86
2022/06/09 02:29:33;;;;;;;79.88;21.23;;;13.60;99.90;;;;;;5020544;28;20055;-90
2022/06/09 02:31:59;;;;;;;68.45;20.20;;;13.60;99.90;;;;;;5017584;28;20041;-87
2022/06/09 02:34:26;;;;;;;69.93;20.70;;;13.60;99.90;;;;;;5015161;28;20075;-86
2022/06/09 02:36:51;;;;;;;70.40;21.33;;;13.60;99.90;;;;;;5044153;28;20125;-87
2022/06/09 02:39:17;;;;;;;59.28;19.55;;;13.60;99.90;;;;;;4993418;28;20128;-90
2022/06/09 02:41:43;;;;;;;65.10;20.05;;;13.50;99.90;;;;;;5041312;28;20046;-87
2022/06/09 02:44:09;;;;;;;69.05;21.35;;;13.50;99.90;;;;;;5040681;28;20563;-87
2022/06/09 02:46:35;;;;;;;73.93;21.70;;;13.40;99.90;;;;;;5007364;28;20103;-91
2022/06/09 02:49:00;;;;;;;59.17;20.58;;;13.40;99.90;;;;;;5043970;28;20088;-87
2022/06/09 02:51:28;;;;;;;67.10;20.73;;;13.30;99.90;;;;;;5034556;28;20128;-88
2022/06/09 02:53:56;;;;;;;52.75;19.67;;;13.30;99.90;;;;;;5041352;28;20041;-90
2022/06/09 02:56:23;;;;;;;75.70;23.17;;;13.20;99.90;;;;;;5026869;28;20049;-87
2022/06/09 02:58:48;;;;;;;63.47;21.35;;;13.20;99.90;;;;;;5007663;28;20070;-88
2022/06/09 03:01:14;;;;;;;71.53;22.38;;;13.20;99.90;;;;;;5012869;28;20083;-87
2022/06/09 03:03:40;;;;;;;75.28;23.15;;;13.20;99.90;;;;;;5044525;28;20100;-87
2022/06/09 03:06:06;;;;;;;67.97;22.70;;;13.20;99.90;;;;;;5038303;28;20099;-88
2022/06/09 03:08:31;;;;;;;86.60;26.30;;;13.10;99.90;;;;;;5024655;28;20049;-87
2022/06/09 03:10:57;;;;;;;76.50;24.40;;;13.10;99.90;;;;;;5024897;28;20037;-87
2022/06/09 03:13:23;;;;;;;107.15;31.17;;;13.10;99.90;;;;;;5024858;28;20045;-87
2022/06/09 03:15:50;;;;;;;64.85;25.23;;;13.10;99.90;;;;;;5029903;28;20494;-86
2022/06/09 03:18:19;;;;;;;82.05;25.60;;;13.10;99.90;;;;;;5021374;28;20391;-89
2022/06/09 03:20:45;;;;;;;74.22;24.85;;;13.00;99.90;;;;;;5023106;28;20059;-87
2022/06/09 03:23:11;;;;;;;90.28;28.70;;;13.00;99.90;;;;;;5023586;28;20045;-88
2022/06/09 03:25:38;;;;;;;71.25;26.15;;;12.90;99.90;;;;;;5026158;28;20171;-88
2022/06/09 03:28:05;;;;;;;71.75;27.42;;;13.00;99.90;;;;;;5043640;28;20072;-87
2022/06/09 03:30:32;;;;;;;61.92;24.42;;;12.90;99.90;;;;;;5027349;28;20049;-87
2022/06/09 03:32:58;;;;;;;71.53;23.95;;;12.90;99.90;;;;;;5022207;28;20049;-87
2022/06/09 03:35:24;;;;;;;65.93;24.25;;;12.90;99.90;;;;;;5038681;28;20095;-89
2022/06/09 03:37:50;;;;;;;54.63;21.75;;;13.00;99.90;;;;;;5044038;28;20047;-88
2022/06/09 03:40:20;;;;;;;62.38;22.30;;;13.00;99.90;;;;;;5026846;28;20049;-88
2022/06/09 03:42:45;;;;;;;49.58;18.98;;;13.00;99.90;;;;;;5035710;28;20041;-88
2022/06/09 03:45:11;;;;;;;67.10;23.02;;;12.90;99.90;;;;;;5026925;28;20043;-92
2022/06/09 03:47:37;;;;;;;48.78;18.05;;;12.90;99.90;;;;;;5021234;28;20045;-87
2022/06/09 03:50:04;;;;;;;46.88;17.70;;;13.00;99.90;;;;;;5010135;28;20055;-87
2022/06/09 03:52:30;;;;;;;55.33;19.40;;;12.90;99.90;;;;;;5012715;28;20045;-88
2022/06/09 03:54:56;;;;;;;50.63;16.50;;;12.90;99.90;;;;;;5023534;28;20049;-88
2022/06/09 03:57:21;;;;;;;61.13;19.90;;;12.90;99.90;;;;;;5016491;28;20046;-87
2022/06/09 03:59:47;;;;;;;53.88;18.45;;;12.90;99.90;;;;;;4984916;28;20116;-89
2022/06/09 04:02:13;;;;;;;53.60;19.02;;;12.90;99.90;;;;;;5008342;28;20544;-87
2022/06/09 04:04:38;;;;;;;51.35;18.58;;;12.90;99.90;;;;;;5046513;28;20077;-87
2022/06/09 04:07:05;;;;;;;47.83;18.10;;;12.90;99.90;;;;;;5038778;28;20056;-87
2022/06/09 04:09:30;;;;;;;45.17;19.15;;;13.00;99.90;;;;;;5033283;28;20045;-88
2022/06/09 04:11:56;;;;;;;48.15;19.20;;;13.00;99.90;;;;;;5009810;28;20058;-86
2022/06/09 04:14:22;;;;;;;44.97;17.13;;;13.00;99.90;;;;;;5016108;28;20060;-87
2022/06/09 04:16:47;;;;;;;35.50;15.90;;;13.00;99.90;;;;;;5011677;28;20464;-87
2022/06/09 04:19:16;;;;;;;50.72;18.33;;;13.00;99.90;;;;;;5026740;28;20045;-87
2022/06/09 04:21:43;;;;;;;56.28;20.15;;;13.00;99.90;;;;;;5005412;28;20452;-87
2022/06/09 04:24:11;;;;;;;32.97;15.73;;;13.10;99.90;;;;;;4995472;28;20048;-87
2022/06/09 04:26:41;;;;;;;40.40;16.95;;;13.00;99.90;;;;;;5008043;28;20128;-90
2022/06/09 04:29:11;;;;;;;34.70;15.35;;;13.10;99.90;;;;;;5001363;28;20514;-88
2022/06/09 04:31:38;;;;;;;32.72;14.57;;;13.20;99.90;;;;;;5021012;28;20125;-92
2022/06/09 04:34:04;;;;;;;48.47;17.05;;;13.20;99.90;;;;;;5003145;28;20061;-87
2022/06/09 04:36:30;;;;;;;32.50;14.18;;;13.20;99.90;;;;;;5002207;28;20081;-87
2022/06/09 04:38:56;;;;;;;41.92;14.77;;;13.20;99.90;;;;;;5004227;28;20076;-87
2022/06/09 04:41:22;;;;;;;33.55;13.68;;;13.20;99.90;;;;;;5022870;28;20444;-88
2022/06/09 04:43:48;;;;;;;43.33;16.10;;;13.20;99.90;;;;;;5025784;28;20038;-87
2022/06/09 04:46:20;;;;;;;34.55;15.07;;;13.30;99.90;;;;;;5012567;28;20049;-86
2022/06/09 04:48:46;;;;;;;38.53;14.13;;;13.30;99.90;;;;;;5001041;28;20064;-86
2022/06/09 04:51:13;;;;;;;37.40;14.65;;;13.30;99.90;;;;;;5013030;28;20041;-85
2022/06/09 04:53:40;;;;;;;31.45;14.38;;;13.40;99.90;;;;;;5004636;28;20057;-87
2022/06/09 04:56:07;;;;;;;32.65;14.90;;;13.40;99.90;;;;;;5009448;28;20053;-86
2022/06/09 04:58:33;;;;;;;36.03;13.95;;;13.40;99.90;;;;;;5011647;28;20045;-86
2022/06/09 05:00:59;;;;;;;27.85;15.05;;;13.40;99.90;;;;;;5010885;28;20042;-86
2022/06/09 05:03:25;;;;;;;35.25;16.55;;;13.40;99.90;;;;;;5018129;28;20056;-86
2022/06/09 05:05:51;;;;;;;33.47;15.07;;;13.40;99.90;;;;;;5031186;28;20368;-91
2022/06/09 05:08:18;;;;;;;38.75;15.55;;;13.40;99.90;;;;;;5022661;28;20049;-85
2022/06/09 05:10:45;;;;;;;42.17;19.50;;;13.50;99.90;;;;;;5014773;28;20046;-86
2022/06/09 05:13:12;;;;;;;42.38;20.08;;;13.50;99.90;;;;;;5042265;28;20050;-87
2022/06/09 05:15:49;;;;;;;41.60;20.23;;;13.50;99.90;;;;;;5046206;28;20056;-86
2022/06/09 05:18:17;;;;;;;45.40;21.45;;;13.60;99.90;;;;;;5017955;28;20080;-90
2022/06/09 05:20:43;;;;;;;46.22;21.70;;;13.60;99.90;;;;;;5036182;28;20541;-87
2022/06/09 05:23:09;;;;;;;45.75;22.23;;;13.60;99.90;;;;;;5032864;28;20073;-85
2022/06/09 05:25:34;;;;;;;45.50;22.85;;;13.60;99.90;;;;;;5045826;28;20128;-86
2022/06/09 05:28:00;;;;;;;39.38;22.50;;;13.60;99.90;;;;;;5034341;28;20095;-90
2022/06/09 05:30:26;;;;;;;45.92;24.08;;;13.50;99.90;;;;;;5030521;28;20107;-86
2022/06/09 05:32:52;;;;;;;46.92;23.40;;;13.50;99.90;;;;;;5052763;28;20506;-87
2022/06/09 05:35:19;;;;;;;60.53;26.98;;;13.50;99.90;;;;;;5036216;28;20436;-85
2022/06/09 05:46:04;;;;;;;55.70;27.50;;;13.50;99.90;;;;;;5039988;28;20091;-87
2022/06/09 05:48:30;;;;;;;61.63;27.55;;;13.60;99.90;;;;;;5053675;28;20051;-85
2022/06/09 05:50:57;;;;;;;57.00;28.38;;;13.60;99.90;;;;;;5007136;28;20036;-83
2022/06/09 05:53:23;;;;;;;69.00;30.95;;;13.60;99.90;;;;;;5026222;28;20052;-85
2022/06/09 05:55:49;;;;;;;56.63;27.02;;;13.60;99.90;;;;;;5032685;28;20138;-85
2022/06/09 05:58:15;;;;;;;51.60;28.92;;;13.60;99.90;;;;;;5028024;28;20107;-85
2022/06/09 06:00:41;;;;;;;63.85;29.77;;;13.70;99.90;;;;;;5016661;28;20486;-86
2022/06/09 06:03:08;;;;;;;54.78;27.33;;;13.70;99.90;;;;;;5014737;28;20071;-86
2022/06/09 06:08:19;;;;;;;64.07;29.10;;;13.90;99.90;;;;;;5034697;28;20152;-84
2022/06/09 06:10:44;;;;;;;60.17;29.15;;;13.90;99.90;;;;;;5021223;28;20198;-84
2022/06/09 06:13:12;;;;;;;64.30;29.75;;;13.90;99.90;;;;;;5015731;28;20063;-88
2022/06/09 06:15:37;;;;;;;51.83;26.90;;;13.90;99.90;;;;;;5021435;28;20124;-85
2022/06/09 06:18:03;;;;;;;53.08;27.48;;;14.10;99.90;;;;;;5024767;28;20153;-84
2022/06/09 06:20:30;;;;;;;49.20;26.55;;;14.30;99.90;;;;;;5012417;28;20052;-85
2022/06/09 06:22:56;;;;;;;45.78;26.38;;;14.30;99.90;;;;;;5033662;28;20154;-84
2022/06/09 06:25:25;;;;;;;48.45;25.85;;;14.40;99.90;;;;;;5043546;28;20045;-84
2022/06/09 06:27:51;;;;;;;45.28;26.88;;;14.40;99.90;;;;;;5018090;28;20513;-84
2022/06/09 06:30:18;;;;;;;47.47;26.75;;;14.50;99.90;;;;;;5034053;28;20040;-86
2022/06/09 06:32:45;;;;;;;54.22;27.08;;;14.60;99.90;;;;;;5026421;28;20050;-83
2022/06/09 06:35:11;;;;;;;47.90;27.70;;;14.70;99.90;;;;;;5001982;28;20053;-87
2022/06/09 06:37:37;;;;;;;51.35;28.10;;;14.80;99.90;;;;;;5034770;28;20045;-84
2022/06/09 06:40:03;;;;;;;45.40;26.42;;;14.90;99.90;;;;;;5048063;28;20057;-83
2022/06/09 06:42:29;;;;;;;45.67;26.35;;;15.00;99.90;;;;;;5047548;28;20403;-83
2022/06/09 06:44:55;;;;;;;39.70;24.67;;;15.10;99.90;;;;;;5010985;28;20573;-85
2022/06/09 06:47:21;;;;;;;41.65;26.67;;;15.20;99.90;;;;;;5017894;28;20080;-84
2022/06/09 06:49:46;;;;;;;38.38;24.58;;;15.30;99.90;;;;;;5015542;28;20041;-84
2022/06/09 06:52:12;;;;;;;39.83;24.35;;;15.30;99.90;;;;;;5047190;28;20124;-89
2022/06/09 06:54:38;;;;;;;37.90;24.20;;;15.60;99.90;;;;;;5035004;28;20056;-84
2022/06/09 06:57:05;;;;;;;33.40;21.70;;;15.70;99.90;;;;;;5034484;28;20057;-84
2022/06/09 06:59:32;;;;;;;30.38;23.08;;;15.80;99.90;;;;;;5021367;28;20067;-84
2022/06/09 07:01:58;;;;;;;32.30;19.77;;;15.90;99.90;;;;;;5034915;28;20055;-84
2022/06/09 07:04:24;;;;;;;29.52;21.27;;;16.00;99.90;;;;;;5033616;28;20056;-84
2022/06/09 07:06:50;;;;;;;23.63;19.70;;;15.90;99.90;;;;;;5042417;28;20048;-84
2022/06/09 07:09:16;;;;;;;24.77;19.33;;;15.90;99.90;;;;;;5050857;28;21458;-87
2022/06/09 07:11:43;;;;;;;22.75;18.00;;;16.00;99.90;;;;;;5037998;28;20068;-84
2022/06/09 07:14:09;;;;;;;23.80;17.48;;;16.20;99.90;;;;;;5010702;28;20068;-84
2022/06/09 07:16:35;;;;;;;23.05;18.23;;;16.40;99.90;;;;;;5014505;28;20056;-84
2022/06/09 07:19:01;;;;;;;17.77;14.18;;;16.30;99.90;;;;;;5048044;28;20045;-84
2022/06/09 07:21:26;;;;;;;15.75;13.27;;;16.50;99.90;;;;;;5042901;28;20128;-84
2022/06/09 07:23:52;;;;;;;18.98;13.88;;;16.70;99.90;;;;;;5049362;28;20041;-84
2022/06/09 07:26:18;;;;;;;16.80;12.60;;;16.70;99.90;;;;;;5034054;28;20041;-87
2022/06/09 07:28:44;;;;;;;14.93;11.85;;;16.80;99.90;;;;;;5033082;28;20045;-84
2022/06/09 07:31:09;;;;;;;14.77;11.43;;;17.20;99.90;;;;;;5047583;28;20061;-84
2022/06/09 07:33:38;;;;;;;11.85;9.70;;;17.40;99.90;;;;;;5017013;28;20049;-84
2022/06/09 07:36:10;;;;;;;13.80;10.00;;;17.30;99.90;;;;;;5025713;28;20415;-84
2022/06/09 07:38:36;;;;;;;11.15;9.07;;;17.30;99.90;;;;;;5046603;28;20049;-84
2022/06/09 07:41:03;;;;;;;14.35;9.55;;;17.60;99.90;;;;;;5014342;28;20111;-84
2022/06/09 07:43:28;;;;;;;10.02;8.68;;;17.90;99.90;;;;;;5023252;28;20399;-84
2022/06/09 07:45:55;;;;;;;10.48;8.48;;;18.20;99.90;;;;;;5017689;28;20051;-84
2022/06/09 07:48:21;;;;;;;9.93;8.00;;;18.20;99.90;;;;;;5050194;28;20087;-88
2022/06/09 07:50:49;;;;;;;12.20;7.80;;;18.30;99.90;;;;;;5015596;28;20121;-84
2022/06/09 07:53:15;;;;;;;9.95;6.63;;;18.20;99.90;;;;;;5024970;28;20056;-84
2022/06/09 07:55:41;;;;;;;9.25;7.20;;;18.50;99.90;;;;;;5045564;28;20488;-83
2022/06/09 07:58:06;;;;;;;9.07;6.20;;;18.30;99.90;;;;;;5034471;28;20041;-85
2022/06/09 08:00:32;;;;;;;4.90;4.32;;;18.30;99.90;;;;;;5021053;28;20376;-84
2022/06/09 08:03:01;;;;;;;9.18;5.53;;;18.80;99.90;;;;;;5023005;28;20051;-83
2022/06/09 08:05:26;;;;;;;6.32;5.00;;;19.20;99.90;;;;;;5046657;28;20394;-84
2022/06/09 08:07:53;;;;;;;7.07;4.32;;;19.40;99.90;;;;;;5026654;28;20037;-84
2022/06/09 08:10:23;;;;;;;6.28;3.42;;;19.10;99.90;;;;;;5010843;28;20111;-84
2022/06/09 08:12:51;;;;;;;7.32;3.30;;;19.10;99.90;;;;;;5027344;28;20494;-84
2022/06/09 08:15:18;;;;;;;6.47;3.00;;;18.90;99.90;;;;;;5025292;28;20121;-83
2022/06/09 08:17:44;;;;;;;7.07;4.00;;;19.70;99.90;;;;;;5038710;28;20743;-84
2022/06/09 08:20:11;;;;;;;5.35;3.72;;;19.60;99.90;;;;;;5028919;28;20041;-84
2022/06/09 08:22:43;;;;;;;4.75;3.38;;;19.10;99.90;;;;;;5033214;28;20088;-84
2022/06/09 08:25:11;;;;;;;5.82;3.40;;;19.30;99.90;;;;;;5030403;28;20542;-84
2022/06/09 08:27:37;;;;;;;6.95;3.08;;;19.80;99.90;;;;;;5046352;28;20045;-83
2022/06/09 08:30:05;;;;;;;5.85;2.40;;;20.10;99.90;;;;;;5039978;28;20048;-84
2022/06/09 08:32:32;;;;;;;4.82;1.80;;;20.70;99.90;;;;;;5024269;28;20466;-85
2022/06/09 08:34:58;;;;;;;6.65;1.70;;;21.10;99.90;;;;;;5024656;28;20056;-84
2022/06/09 08:37:24;;;;;;;5.65;1.92;;;21.20;99.90;;;;;;5013653;28;20041;-84
2022/06/09 08:39:50;;;;;;;4.80;2.00;;;21.40;99.90;;;;;;5025761;28;20067;-84
2022/06/09 08:42:37;;;;;;;6.28;2.00;;;21.00;99.90;;;;;;5016094;28;20478;-85
2022/06/09 08:45:09;;;;;;;5.25;1.98;;;20.20;99.90;;;;;;5059767;28;20479;-84
2022/06/09 08:47:42;;;;;;;4.32;1.75;;;19.90;99.90;;;;;;5019451;28;20059;-84
2022/06/09 08:50:20;;;;;;;4.72;1.65;;;20.60;99.90;;;;;;5033695;28;20037;-84
2022/06/09 08:53:08;;;;;;;2.70;1.25;;;21.00;99.90;;;;;;5046609;28;20080;-85
2022/06/09 08:55:40;;;;;;;7.22;1.40;;;20.80;99.90;;;;;;5045428;28;20047;-84
2022/06/09 08:58:11;;;;;;;5.47;1.60;;;20.30;99.90;;;;;;5046385;28;20041;-84
2022/06/09 09:00:41;;;;;;;7.05;1.50;;;20.50;99.90;;;;;;5043823;28;20048;-85
2022/06/09 09:03:18;;;;;;;3.22;1.30;;;20.80;99.90;;;;;;5033303;28;20425;-84
2022/06/09 09:05:56;;;;;;;4.07;1.27;;;21.10;99.90;;;;;;5049340;28;20055;-84
2022/06/09 09:08:22;;;;;;;4.88;1.40;;;21.80;99.90;;;;;;5030380;28;20060;-84
2022/06/09 09:11:06;;;;;;;3.20;1.23;;;21.90;99.90;;;;;;5035563;28;20380;-85
2022/06/09 09:13:35;;;;;;;3.17;1.35;;;22.50;99.90;;;;;;5032805;28;20053;-89
2022/06/09 09:16:08;;;;;;;3.55;1.50;;;22.80;99.90;;;;;;5032924;28;20167;-84
2022/06/09 09:18:49;;;;;;;5.93;1.42;;;21.90;99.90;;;;;;5032846;28;20052;-87
2022/06/09 09:21:45;;;;;;;4.82;1.13;;;21.60;99.90;;;;;;5033311;28;20041;-84
2022/06/09 09:24:34;;;;;;;3.70;0.95;;;22.60;99.90;;;;;;5019991;28;20059;-85
2022/06/09 09:27:14;;;;;;;2.63;0.80;;;22.70;99.90;;;;;;5032552;28;20123;-84
2022/06/09 09:29:47;;;;;;;4.45;1.08;;;22.00;97.20;;;;;;5032238;28;20111;-84
2022/06/09 09:32:26;;;;;;;5.57;1.33;;;21.90;99.90;;;;;;5044618;28;20049;-83
2022/06/09 09:34:52;;;;;;;8.07;1.10;;;23.00;98.90;;;;;;5025739;28;20053;-84
2022/06/09 09:37:37;;;;;;;4.43;1.20;;;23.80;99.60;;;;;;5048921;28;20045;-84
2022/06/09 09:40:18;;;;;;;2.75;1.00;;;24.20;98.50;;;;;;5032178;28;20049;-84
2022/06/09 09:42:46;;;;;;;3.92;1.10;;;23.80;83.00;;;;;;5036813;28;20490;-84
2022/06/09 09:45:40;;;;;;;2.55;0.70;;;23.60;95.00;;;;;;5049027;28;20048;-83
2022/06/09 09:48:27;;;;;;;4.53;0.88;;;24.00;97.80;;;;;;5050820;28;20067;-84
2022/06/09 09:51:09;;;;;;;4.28;1.27;;;25.00;85.60;;;;;;5035203;28;20051;-84
2022/06/09 09:53:38;;;;;;;4.95;1.50;;;25.30;74.10;;;;;;5036190;28;20053;-84
2022/06/09 09:56:17;;;;;;;4.25;0.90;;;25.60;66.80;;;;;;5048538;28;20510;-84
2022/06/09 09:58:48;;;;;;;4.63;0.82;;;25.40;64.40;;;;;;5029167;28;20438;-84
2022/06/09 10:01:14;;;;;;;4.70;0.98;;;24.80;64.00;;;;;;5046692;28;20083;-84
2022/06/09 10:09:43;;;;;;;4.03;1.00;;;25.90;62.80;;;;;;5049529;28;20567;-82
2022/06/09 10:12:18;;;;;;;3.60;1.30;;;25.50;63.20;;;;;;5032893;28;20076;-84
2022/06/09 10:15:01;;;;;;;;;;;25.20;62.80;;;;;;5017172;28;20057;-85
2022/06/09 10:17:43;;;;;;;5.95;1.02;;;25.00;62.40;;;;;;5039436;28;19924;-84
2022/06/09 10:20:27;;;;;;;4.70;0.90;;;25.70;64.10;;;;;;5051475;28;20059;-83
2022/06/09 10:23:16;;;;;;;7.65;1.20;;;25.90;58.60;;;;;;5034983;28;20414;-81
2022/06/09 10:26:15;;;;;;;3.58;0.90;;;26.00;58.30;;;;;;5035560;28;20060;-83
2022/06/09 10:28:53;;;;;;;5.30;0.80;;;26.70;59.00;;;;;;5018610;28;20053;-81
2022/06/09 10:31:44;;;;;;;3.33;0.80;;;26.20;54.80;;;;;;5035249;28;20048;-81
2022/06/09 10:34:22;;;;;;;3.25;0.82;;;26.00;52.20;;;;;;5049003;28;20088;-81
2022/06/09 10:36:50;;;;;;;4.28;0.90;;;25.70;54.30;;;;;;5024009;28;20141;-81
2022/06/09 10:39:37;;;;;;;5.07;1.20;;;26.00;56.50;;;;;;5021380;28;20056;-82
2022/06/09 10:42:27;;;;;;;4.18;0.82;;;26.70;53.20;;;;;;5020996;28;20075;-81
2022/06/09 10:45:12;;;;;;;5.05;0.88;;;25.90;49.50;;;;;;5016360;28;20062;-81
2022/06/09 10:57:28;;;;;;;3.28;0.88;;;26.30;52.80;;;;;;5032513;28;20533;-80
2022/06/09 11:00:09;;;;;;;3.05;0.55;;;26.50;52.50;;;;;;4953211;28;20051;-80
2022/06/09 11:02:35;;;;;;;3.05;0.88;;;26.80;49.70;;;;;;5007992;28;20132;-81
2022/06/09 11:05:03;;;;;;;2.00;0.60;;;26.70;51.10;;;;;;5021130;28;20057;-82
2022/06/09 11:07:57;;;;;;;1.67;0.65;;;27.00;50.00;;;;;;5050796;28;20076;-81
2022/06/09 11:11:01;;;;;;;2.30;0.63;;;27.10;46.80;;;;;;5033093;28;20049;-83
2022/06/09 11:14:00;;;;;;;2.55;0.63;;;27.20;48.70;;;;;;4953137;28;20057;-85
2022/06/09 11:16:41;;;;;;;4.10;0.70;;;27.10;46.60;;;;;;5025234;28;20467;-83
2022/06/09 11:19:44;;;;;;;1.77;0.50;;;26.40;47.30;;;;;;5014969;28;20074;-84
2022/06/09 11:22:47;;;;;;;3.78;0.70;;;24.80;47.80;;;;;;5002084;28;20056;-83
2022/06/09 11:25:34;;;;;;;3.17;0.65;;;24.70;50.90;;;;;;5026977;28;20407;-84
2022/06/09 11:28:08;;;;;;;4.00;0.70;;;25.70;49.30;;;;;;5012190;28;20049;-84
2022/06/09 11:31:15;;;;;;;2.75;0.80;;;25.40;51.10;;;;;;5013775;28;20068;-84
2022/06/09 11:33:54;;;;;;;5.97;0.80;;;25.40;49.90;;;;;;4974500;28;20089;-84
2022/06/09 11:36:36;;;;;;;3.15;0.40;;;25.50;53.20;;;;;;4994736;28;20046;-84
2022/06/09 11:39:34;;;;;;;2.35;0.70;;;26.50;48.80;;;;;;4999556;28;20144;-85
2022/06/09 11:42:06;;;;;;;3.25;0.70;;;26.50;46.70;;;;;;4999680;28;20064;-84
2022/06/09 11:44:38;;;;;;;3.10;0.80;;;26.70;50.10;;;;;;5027245;28;20060;-84
2022/06/09 11:47:14;;;;;;;9.35;1.13;;;26.70;49.30;;;;;;5025675;28;20057;-84
2022/06/09 11:49:47;;;;;;;;;;;26.30;50.00;;;;;;5030965;28;20045;-84
2022/06/09 11:52:19;;;;;;;7.10;1.55;;;26.00;48.90;;;;;;5029792;28;19944;-84
2022/06/09 11:54:54;;;;;;;2.85;1.08;;;26.10;49.60;;;;;;5006398;28;20045;-84
2022/06/09 11:57:27;;;;;;;4.47;0.95;;;26.10;50.00;;;;;;5008166;28;20049;-84
2022/06/09 12:00:22;;;;;;;5.00;1.25;;;25.10;51.50;;;;;;5047271;28;20081;-83
2022/06/09 12:02:57;;;;;;;6.38;1.05;;;24.20;51.90;;;;;;5010318;28;20044;-83
2022/06/09 12:05:34;;;;;;;6.50;0.90;;;23.40;54.20;;;;;;5002939;28;20049;-84
2022/06/09 12:08:28;;;;;;;3.83;0.93;;;23.40;56.20;;;;;;4998150;28;20448;-84
2022/06/09 12:11:03;;;;;;;3.85;0.70;;;24.30;54.90;;;;;;5006032;28;20132;-84
2022/06/09 12:14:00;;;;;;;4.47;1.00;;;24.60;53.50;;;;;;5023237;28;20050;-84
2022/06/09 12:16:31;;;;;;;3.40;0.68;;;25.90;49.70;;;;;;5011818;28;20044;-82
2022/06/09 12:19:28;;;;;;;5.63;1.40;;;25.50;50.80;;;;;;5013418;28;20049;-84
2022/06/09 12:21:58;;;;;;;4.68;1.08;;;25.10;50.10;;;;;;4999539;28;20099;-84
2022/06/09 12:24:32;;;;;;;5.03;1.00;;;24.60;51.60;;;;;;5027147;28;20053;-83
2022/06/09 12:27:17;;;;;;;5.78;1.42;;;24.10;52.70;;;;;;4996768;28;20065;-84
2022/06/09 12:30:03;;;;;;;6.05;1.90;;;24.40;53.30;;;;;;5013215;28;20060;-84
2022/06/09 12:32:40;;;;;;;3.22;0.93;;;26.00;52.70;;;;;;5020654;28;20048;-84
2022/06/09 12:35:20;;;;;;;5.72;1.00;;;26.80;46.60;;;;;;5007997;28;20103;-85
2022/06/09 12:37:56;;;;;;;6.50;1.20;;;26.10;48.40;;;;;;5029845;28;20046;-83
2022/06/09 12:40:28;;;;;;;4.00;1.45;;;25.20;50.40;;;;;;5012427;28;20051;-84
2022/06/09 12:43:08;;;;;;;5.63;1.00;;;25.10;52.10;;;;;;5026656;28;20116;-84
2022/06/09 12:45:37;;;;;;;5.18;0.90;;;24.80;52.40;;;;;;5009855;28;20049;-84
2022/06/09 12:48:17;;;;;;;4.03;0.77;;;24.70;52.40;;;;;;5013009;28;20085;-87
2022/06/09 12:50:51;;;;;;;3.03;0.95;;;24.70;50.30;;;;;;5012678;28;20290;-83
2022/06/09 12:53:39;;;;;;;4.25;0.90;;;24.70;52.00;;;;;;5012682;28;20043;-84
2022/06/09 12:56:24;;;;;;;3.28;0.60;;;25.30;48.60;;;;;;5028514;28;20072;-87
2022/06/09 12:58:51;;;;;;;4.13;1.02;;;24.80;49.60;;;;;;5012988;28;20088;-84
2022/06/09 13:01:21;;;;;;;3.97;1.10;;;24.40;51.60;;;;;;5029003;28;20041;-84
2022/06/09 13:04:04;;;;;;;2.13;0.70;;;24.80;50.60;;;;;;5029582;28;20046;-84
2022/06/09 13:06:39;;;;;;;4.95;0.80;;;25.30;47.40;;;;;;4994943;28;20048;-83
2022/06/09 13:09:16;;;;;;;4.53;1.10;;;25.70;48.70;;;;;;4997410;28;20057;-83
2022/06/09 13:14:30;;;;;;;4.00;0.98;;;27.20;45.20;;;;;;5048777;28;20057;-84
2022/06/09 13:17:00;;;;;;;4.90;1.45;;;27.70;44.60;;;;;;5031582;28;20041;-84
2022/06/09 13:19:29;;;;;;;4.32;0.82;;;27.90;43.60;;;;;;5021696;28;20057;-85
2022/06/09 13:21:58;;;;;;;2.65;0.90;;;27.10;44.90;;;;;;5047921;28;20049;-84
2022/06/09 13:24:27;;;;;;;3.20;0.88;;;27.20;45.00;;;;;;5048831;28;20055;-84
2022/06/09 13:26:53;;;;;;;3.00;0.70;;;27.90;44.30;;;;;;5030623;28;20445;-84